createdAt,value
2024-04-19T00:02:26.000Z,23.90
2024-04-19T00:05:27.495Z,22.50
2024-04-19T00:08:29.194Z,22.40
2024-04-19T00:14:32.201Z,21.80
2024-04-19T00:17:33.642Z,18.30
2024-04-19T00:20:35.095Z,20.90
2024-04-19T00:23:37.243Z,19.80
2024-04-19T00:26:38.765Z,18.70
2024-04-19T00:29:40.293Z,19.40
2024-04-19T00:32:41.829Z,19.30
2024-04-19T00:38:45.556Z,20.40
2024-04-19T00:41:47.022Z,20.20
2024-04-19T00:44:48.483Z,20.90
2024-04-19T00:47:50.056Z,19.50
2024-04-19T00:53:55.617Z,18.20
2024-04-19T00:56:57.222Z,18.70
2024-04-19T00:59:58.816Z,20.50
2024-04-19T01:03:00.312Z,20.70
2024-04-19T01:06:02.210Z,22.10
2024-04-19T01:09:04.607Z,20.80
2024-04-19T01:12:07.117Z,20.80
2024-04-19T01:15:24.320Z,21.60
2024-04-19T01:18:25.929Z,20.80
2024-04-19T01:24:49.675Z,19.50
2024-04-19T01:27:51.157Z,19.80
2024-04-19T01:30:52.661Z,19.90
2024-04-19T01:33:54.114Z,21.60
2024-04-19T01:36:55.722Z,23.00
2024-04-19T01:42:58.661Z,24.50
2024-04-19T01:46:00.242Z,23.00
2024-04-19T01:49:01.824Z,23.30
2024-04-19T01:55:05.059Z,26.70
2024-04-19T01:58:06.582Z,30.40
2024-04-19T02:01:08.430Z,30.30
2024-04-19T02:04:10.052Z,30.40
2024-04-19T02:07:11.465Z,30.80
2024-04-19T02:10:12.997Z,32.00
2024-04-19T02:13:14.425Z,32.00
2024-04-19T02:16:15.797Z,32.10
2024-04-19T02:19:17.253Z,29.50
2024-04-19T02:22:18.742Z,33.30
2024-04-19T02:25:20.472Z,30.50
2024-04-19T02:28:22.028Z,31.40
2024-04-19T02:34:24.903Z,30.50
2024-04-19T02:37:26.278Z,31.30
2024-04-19T02:40:27.750Z,31.20
2024-04-19T02:43:29.432Z,31.70
2024-04-19T02:49:32.292Z,32.70
2024-04-19T02:52:33.680Z,35.70
2024-04-19T02:55:35.082Z,34.50
2024-04-19T02:58:36.601Z,33.90
2024-04-19T03:01:37.963Z,35.30
2024-04-19T03:04:39.626Z,33.20
2024-04-19T03:10:42.659Z,36.30
2024-04-19T03:13:44.019Z,39.40
2024-04-19T03:16:45.396Z,42.60
2024-04-19T03:19:46.742Z,41.60
2024-04-19T03:22:48.194Z,46.20
2024-04-19T03:25:49.542Z,46.10
2024-04-19T03:28:51.016Z,47.50
2024-04-19T03:31:52.381Z,46.50
2024-04-19T03:34:54.198Z,44.10
2024-04-19T03:37:55.578Z,51.10
2024-04-19T03:40:57.272Z,52.10
2024-04-19T03:46:59.933Z,49.80
2024-04-19T03:50:01.397Z,47.70
2024-04-19T03:53:03.971Z,45.30
2024-04-19T03:56:05.499Z,43.80
2024-04-19T03:59:06.871Z,43.90
2024-04-19T04:02:29.242Z,47.10
2024-04-19T04:05:51.996Z,44.50
2024-04-19T04:09:12.453Z,43.30
2024-04-19T04:12:32.983Z,41.70
2024-04-19T04:15:53.553Z,39.40
2024-04-19T04:19:14.687Z,37.80
2024-04-19T04:22:35.832Z,37.40
2024-04-19T04:25:56.374Z,40.50
2024-04-19T04:29:16.847Z,41.10
2024-04-19T04:32:37.274Z,43.60
2024-04-19T04:36:00.710Z,41.50
2024-04-19T04:39:21.575Z,42.50
2024-04-19T04:42:41.830Z,40.90
2024-04-19T04:46:02.564Z,39.80
2024-04-19T04:49:22.910Z,39.80
2024-04-19T04:52:43.447Z,38.30
2024-04-19T04:56:04.260Z,40.80
2024-04-19T04:59:24.549Z,37.70
2024-04-19T05:02:45.047Z,34.50
2024-04-19T05:06:05.686Z,34.50
2024-04-19T05:09:25.978Z,29.10
2024-04-19T05:12:46.133Z,28.30
2024-04-19T05:16:06.977Z,24.20
2024-04-19T05:19:27.537Z,22.70
2024-04-19T05:22:48.415Z,21.30
2024-04-19T05:26:08.794Z,17.90
2024-04-19T05:29:29.478Z,18.30
2024-04-19T05:32:49.743Z,17.20
2024-04-19T05:38:52.577Z,16.70
2024-04-19T05:41:53.963Z,15.80
2024-04-19T05:44:55.377Z,15.30
2024-04-19T05:54:01.327Z,12.90
2024-04-19T05:57:02.923Z,12.40
2024-04-19T06:03:06.009Z,14.10
2024-04-19T06:09:08.845Z,12.30
2024-04-19T06:12:10.282Z,11.90
2024-04-19T06:15:11.981Z,11.20
2024-04-19T06:18:13.436Z,10.10
2024-04-19T06:24:16.977Z,9.50
2024-04-19T06:27:18.484Z,9.50
2024-04-19T06:33:21.333Z,8.30
2024-04-19T06:39:24.819Z,8.90
2024-04-19T06:42:26.410Z,9.70
2024-04-19T06:48:29.254Z,10.90
2024-04-19T06:54:33.014Z,11.10
2024-04-19T07:00:47.874Z,10.50
2024-04-19T07:04:00.960Z,10.30
2024-04-19T07:07:02.526Z,8.00
2024-04-19T07:13:06.677Z,7.00
2024-04-19T07:16:08.171Z,5.30
2024-04-19T07:19:09.634Z,4.90
2024-04-19T07:25:12.382Z,4.60
2024-04-19T07:34:16.797Z,4.60
2024-04-19T07:40:19.727Z,4.60
2024-04-19T07:43:21.716Z,4.20
2024-04-19T07:46:23.228Z,4.00
2024-04-19T07:49:26.556Z,4.60
2024-04-19T07:52:28.070Z,4.10
2024-04-19T07:55:29.507Z,4.10
2024-04-19T07:58:30.957Z,4.30
2024-04-19T08:01:32.352Z,4.20
2024-04-19T08:04:34.008Z,4.00
2024-04-19T08:07:40.166Z,4.10
2024-04-19T08:10:42.778Z,4.20
2024-04-19T08:13:44.524Z,3.80
2024-04-19T08:16:46.077Z,4.00
2024-04-19T08:19:48.147Z,4.20
2024-04-19T08:22:49.605Z,3.50
2024-04-19T08:25:51.032Z,4.30
2024-04-19T08:28:52.596Z,3.60
2024-04-19T08:31:56.543Z,3.50
2024-04-19T08:34:58.140Z,3.70
2024-04-19T08:37:59.525Z,3.80
2024-04-19T08:41:04.469Z,3.80
2024-04-19T08:44:08.899Z,3.60
2024-04-19T08:47:11.423Z,3.60
2024-04-19T08:50:15.313Z,3.70
2024-04-19T08:53:19.102Z,3.60
2024-04-19T08:56:21.376Z,3.70
2024-04-19T08:59:22.932Z,3.60
2024-04-19T09:02:24.451Z,3.50
2024-04-19T09:05:25.932Z,3.40
2024-04-19T09:08:27.402Z,3.50
2024-04-19T09:11:28.903Z,3.60
2024-04-19T09:14:30.568Z,3.70
2024-04-19T09:17:32.234Z,3.40
2024-04-19T09:20:33.768Z,3.70
2024-04-19T09:23:35.144Z,3.80
2024-04-19T09:29:38.026Z,4.20
2024-04-19T09:32:39.700Z,3.70
2024-04-19T09:35:41.207Z,4.10
2024-04-19T09:38:43.249Z,3.90
2024-04-19T09:41:48.759Z,3.50
2024-04-19T09:44:53.590Z,3.80
2024-04-19T09:47:55.878Z,3.60
2024-04-19T09:50:58.705Z,4.20
2024-04-19T09:54:04.831Z,3.60
2024-04-19T09:57:06.403Z,3.50
2024-04-19T10:00:09.376Z,3.00
2024-04-19T10:03:12.526Z,3.00
2024-04-19T10:06:14.393Z,3.20
2024-04-19T10:09:24.646Z,3.20
2024-04-19T10:12:26.199Z,3.10
2024-04-19T10:15:27.768Z,3.40
2024-04-19T10:18:29.263Z,3.50
2024-04-19T10:21:34.131Z,3.30
2024-04-19T10:24:35.499Z,3.50
2024-04-19T10:27:38.552Z,3.30
2024-04-19T10:30:40.001Z,3.20
2024-04-19T10:33:43.010Z,3.40
2024-04-19T10:36:45.930Z,3.20
2024-04-19T10:39:47.849Z,3.20
2024-04-19T10:42:49.326Z,3.10
2024-04-19T10:45:51.029Z,3.40
2024-04-19T10:48:53.763Z,3.50
2024-04-19T10:51:55.435Z,3.10
2024-04-19T10:54:58.542Z,3.30
2024-04-19T10:58:00.074Z,3.40
2024-04-19T11:01:02.114Z,3.70
2024-04-19T11:04:03.731Z,3.30
2024-04-19T11:07:05.200Z,3.00
2024-04-19T11:10:07.212Z,3.00
2024-04-19T11:13:09.839Z,3.20
2024-04-19T11:16:11.476Z,3.30
2024-04-19T11:19:13.112Z,3.40
2024-04-19T11:22:15.950Z,3.60
2024-04-19T11:25:17.561Z,3.20
2024-04-19T11:28:19.716Z,3.30
2024-04-19T11:31:21.344Z,3.20
2024-04-19T11:34:28.068Z,2.90
2024-04-19T11:37:29.482Z,3.40
2024-04-19T11:40:31.178Z,3.40
2024-04-19T11:43:32.703Z,3.60
2024-04-19T11:46:34.532Z,3.20
2024-04-19T11:49:36.055Z,3.30
2024-04-19T11:52:39.677Z,3.30
2024-04-19T11:55:41.583Z,3.10
2024-04-19T11:58:44.408Z,3.10
2024-04-19T12:01:46.651Z,3.00
2024-04-19T12:04:48.268Z,3.00
2024-04-19T12:07:50.072Z,3.20
2024-04-19T12:10:51.634Z,3.10
2024-04-19T12:14:39.237Z,3.40
2024-04-19T12:20:35.577Z,3.10
2024-04-19T12:23:44.364Z,3.40
2024-04-19T12:26:46.070Z,2.90
2024-04-19T12:29:47.734Z,3.10
2024-04-19T12:32:49.272Z,3.10
2024-04-19T12:35:50.971Z,3.10
2024-04-19T12:38:52.464Z,3.20
2024-04-19T12:41:54.680Z,3.50
2024-04-19T12:44:56.047Z,3.30
2024-04-19T12:48:05.584Z,3.40
2024-04-19T12:51:07.340Z,3.30
2024-04-19T12:54:08.914Z,3.10
2024-04-19T12:57:10.393Z,3.10
2024-04-19T13:00:12.481Z,3.20
2024-04-19T13:03:13.942Z,3.10
2024-04-19T13:06:15.426Z,3.00
2024-04-19T13:09:16.801Z,3.10
2024-04-19T13:12:18.292Z,3.00
2024-04-19T13:15:19.789Z,2.90
2024-04-19T13:18:21.409Z,3.10
2024-04-19T13:21:22.854Z,3.30
2024-04-19T13:24:24.262Z,3.40
2024-04-19T13:27:25.718Z,3.20
2024-04-19T13:30:28.055Z,3.00
2024-04-19T13:33:29.474Z,3.50
2024-04-19T13:36:30.925Z,3.50
2024-04-19T13:39:32.563Z,3.30
2024-04-19T13:42:34.041Z,3.30
2024-04-19T13:45:35.676Z,3.30
2024-04-19T13:48:37.307Z,3.60
2024-04-19T13:51:39.036Z,3.60
2024-04-19T13:54:40.517Z,3.20
2024-04-19T13:57:42.038Z,2.80
2024-04-19T14:00:43.727Z,3.00
2024-04-19T14:03:45.749Z,3.20
2024-04-19T14:06:47.323Z,3.30
2024-04-19T14:09:48.752Z,2.90
2024-04-19T14:12:50.971Z,3.30
2024-04-19T14:15:52.406Z,3.00
2024-04-19T14:18:55.231Z,3.30
2024-04-19T14:21:56.954Z,2.90
2024-04-19T14:24:58.428Z,3.20
2024-04-19T14:27:59.901Z,3.20
2024-04-19T14:31:01.507Z,3.40
2024-04-19T14:34:02.975Z,3.20
2024-04-19T14:37:04.745Z,3.40
2024-04-19T14:40:06.873Z,3.20
2024-04-19T14:43:08.395Z,3.40
2024-04-19T14:46:09.855Z,3.30
2024-04-19T14:49:11.463Z,4.30
2024-04-19T14:52:13.533Z,2.90
2024-04-19T14:55:15.208Z,3.20
2024-04-19T14:58:16.581Z,3.00
2024-04-19T15:01:18.250Z,3.30
2024-04-19T15:04:19.903Z,3.60
2024-04-19T15:07:21.545Z,4.30
2024-04-19T15:10:22.903Z,3.50
2024-04-19T15:13:24.306Z,3.00
2024-04-19T15:16:25.706Z,3.10
2024-04-19T15:19:27.222Z,3.10
2024-04-19T15:22:28.625Z,3.10
2024-04-19T15:25:31.533Z,3.30
2024-04-19T15:28:34.946Z,3.50
2024-04-19T15:31:37.494Z,2.90
2024-04-19T15:34:47.120Z,3.20
2024-04-19T15:37:50.192Z,3.40
2024-04-19T15:40:51.568Z,3.30
2024-04-19T15:43:52.970Z,3.30
2024-04-19T15:46:54.407Z,3.40
2024-04-19T15:49:55.815Z,3.80
2024-04-19T15:52:57.226Z,3.30
2024-04-19T15:55:58.758Z,3.40
2024-04-19T15:59:00.123Z,3.40
2024-04-19T16:02:01.573Z,3.30
2024-04-19T16:05:02.998Z,3.80
2024-04-19T16:08:04.582Z,3.60
2024-04-19T16:11:06.277Z,3.90
2024-04-19T16:14:07.897Z,4.00
2024-04-19T16:17:09.242Z,3.70
2024-04-19T16:23:14.519Z,3.70
2024-04-19T16:29:17.989Z,3.50
2024-04-19T16:32:19.427Z,3.70
2024-04-19T16:35:20.807Z,4.50
2024-04-19T16:41:23.606Z,3.70
2024-04-19T16:47:26.700Z,3.60
2024-04-19T16:50:28.746Z,3.40
2024-04-19T16:53:30.153Z,3.40
2024-04-19T16:59:32.800Z,4.40
2024-04-19T17:02:34.540Z,4.10
2024-04-19T17:05:36.717Z,4.20
2024-04-19T17:08:38.481Z,4.80
2024-04-19T17:11:39.880Z,4.90
2024-04-19T17:17:48.894Z,4.20
2024-04-19T17:20:50.308Z,4.70
2024-04-19T17:26:53.039Z,4.20
2024-04-19T17:29:54.453Z,4.50
2024-04-19T17:35:57.272Z,3.70
2024-04-19T17:41:59.971Z,4.50
2024-04-19T17:45:01.534Z,4.30
2024-04-19T17:51:04.942Z,4.10
2024-04-19T17:54:06.379Z,3.90
2024-04-19T17:57:07.782Z,3.60
2024-04-19T18:03:10.890Z,4.20
2024-04-19T18:06:12.367Z,4.10
2024-04-19T18:12:15.390Z,4.20
2024-04-19T18:15:16.801Z,4.20
2024-04-19T18:18:18.246Z,4.40
2024-04-19T18:21:19.677Z,4.70
2024-04-19T18:24:21.287Z,4.60
2024-04-19T18:27:22.857Z,5.00
2024-04-19T18:33:26.475Z,4.30
2024-04-19T18:36:28.014Z,5.50
2024-04-19T18:42:30.929Z,4.60
2024-04-19T18:48:33.956Z,4.80
2024-04-19T18:54:36.948Z,5.00
2024-04-19T19:00:39.854Z,5.30
2024-04-19T19:03:42.007Z,5.30
2024-04-19T19:06:43.471Z,5.20
2024-04-19T19:09:45.493Z,5.10
2024-04-19T19:12:46.909Z,4.90
2024-04-19T19:15:58.477Z,5.80
2024-04-19T19:19:00.271Z,5.20
2024-04-19T19:25:03.273Z,5.20
2024-04-19T19:31:06.408Z,4.70
2024-04-19T19:37:09.403Z,6.50
2024-04-19T19:43:14.462Z,6.50
2024-04-19T19:46:16.082Z,6.20
2024-04-19T19:49:23.336Z,7.00
2024-04-19T19:52:24.777Z,6.40
2024-04-19T19:55:26.203Z,6.90
2024-04-19T19:58:27.629Z,6.40
2024-04-19T20:01:29.326Z,6.90
2024-04-19T20:07:32.349Z,5.10
2024-04-19T20:10:33.705Z,5.60
2024-04-19T20:16:36.804Z,6.00
2024-04-19T20:19:38.281Z,6.20
2024-04-19T20:22:39.725Z,6.10
2024-04-19T20:25:42.663Z,6.50
2024-04-19T20:28:44.078Z,6.50
2024-04-19T20:31:45.497Z,6.60
2024-04-19T20:34:46.867Z,6.50
2024-04-19T20:37:48.387Z,6.30
2024-04-19T20:40:49.757Z,5.80
2024-04-19T20:43:51.292Z,6.40
2024-04-19T20:49:54.029Z,5.60
2024-04-19T20:52:55.346Z,5.80
2024-04-19T20:55:56.717Z,4.90
2024-04-19T20:58:58.199Z,5.70
2024-04-19T21:01:59.683Z,5.30
2024-04-19T21:08:02.451Z,6.00
2024-04-19T21:11:04.196Z,5.40
2024-04-19T21:14:07.930Z,5.30
2024-04-19T21:17:10.565Z,5.50
2024-04-19T21:20:11.914Z,5.40
2024-04-19T21:23:13.586Z,4.90
2024-04-19T21:26:15.124Z,5.10
2024-04-19T21:29:16.557Z,4.10
2024-04-19T21:32:17.948Z,4.20
2024-04-19T21:35:19.488Z,4.60
2024-04-19T21:41:22.276Z,4.30
2024-04-19T21:44:23.618Z,4.10
2024-04-19T21:47:25.039Z,4.00
2024-04-19T21:50:26.429Z,3.90
2024-04-19T21:53:27.967Z,4.50
2024-04-19T21:59:30.883Z,4.40
2024-04-19T22:02:32.277Z,4.50
2024-04-19T22:05:33.759Z,4.20
2024-04-19T22:11:36.488Z,4.80
2024-04-19T22:14:38.069Z,3.60
2024-04-19T22:20:40.825Z,3.80
2024-04-19T22:23:42.728Z,3.80
2024-04-19T22:26:44.353Z,4.00
2024-04-19T22:29:46.068Z,3.80
2024-04-19T22:32:47.555Z,3.40
2024-04-19T22:38:50.325Z,3.80
2024-04-19T22:41:51.769Z,4.00
2024-04-19T22:44:53.203Z,4.00
2024-04-19T22:50:55.993Z,3.80
2024-04-19T22:53:57.348Z,3.60
2024-04-19T22:56:58.860Z,3.60
2024-04-19T23:03:01.868Z,4.10
2024-04-19T23:09:08.556Z,3.60
2024-04-19T23:12:10.973Z,3.70
2024-04-19T23:15:12.683Z,3.60
2024-04-19T23:18:14.256Z,3.60
2024-04-19T23:24:17.031Z,3.00
2024-04-19T23:27:18.476Z,3.50
2024-04-19T23:30:19.962Z,3.50
2024-04-19T23:36:23.455Z,3.70
2024-04-19T23:39:24.897Z,3.20
2024-04-19T23:42:28.527Z,2.90
2024-04-19T23:45:31.769Z,3.10
2024-04-19T23:48:33.367Z,3.00
